createdAt,value
2022-08-05T00:02:07.900Z,12.50
2022-08-05T00:04:40.249Z,11.68
2022-08-05T00:07:21.808Z,11.27
2022-08-05T00:09:54.507Z,11.25
2022-08-05T00:12:21.727Z,10.55
2022-08-05T00:14:51.667Z,11.75
2022-08-05T00:17:19.657Z,10.43
2022-08-05T00:20:02.051Z,11.52
2022-08-05T00:22:30.077Z,10.57
2022-08-05T00:24:58.082Z,11.65
2022-08-05T00:27:35.880Z,11.68
2022-08-05T00:30:04.556Z,12.05
2022-08-05T00:32:31.635Z,12.05
2022-08-05T00:35:06.889Z,11.05
2022-08-05T00:37:35.901Z,11.98
2022-08-05T00:40:28.142Z,12.00
2022-08-05T00:42:57.577Z,11.32
2022-08-05T00:45:27.894Z,12.52
2022-08-05T00:48:05.112Z,12.00
2022-08-05T00:50:32.795Z,12.02
2022-08-05T00:52:59.808Z,11.93
2022-08-05T00:55:42.650Z,12.82
2022-08-05T00:58:14.739Z,12.48
2022-08-05T01:00:42.242Z,12.50
2022-08-05T01:03:10.487Z,11.80
2022-08-05T01:05:49.455Z,12.15
2022-08-05T01:08:40.029Z,12.90
2022-08-05T01:11:36.640Z,11.18
2022-08-05T01:14:08.755Z,12.70
2022-08-05T01:16:52.265Z,11.95
2022-08-05T01:20:00.691Z,12.80
2022-08-05T01:22:57.381Z,12.45
2022-08-05T01:25:59.529Z,13.45
2022-08-05T01:28:45.671Z,12.65
2022-08-05T01:31:27.897Z,12.35
2022-08-05T01:34:05.511Z,12.85
2022-08-05T01:36:42.309Z,12.82
2022-08-05T01:39:14.150Z,12.75
2022-08-05T01:42:01.117Z,12.57
2022-08-05T01:44:34.404Z,12.90
2022-08-05T01:47:02.593Z,12.30
2022-08-05T01:50:00.279Z,13.40
2022-08-05T01:52:19.666Z,14.65
2022-08-05T01:54:53.197Z,12.80
2022-08-05T01:58:11.162Z,13.18
2022-08-05T02:00:13.682Z,11.70
2022-08-05T02:02:51.149Z,12.47
2022-08-05T02:05:18.319Z,12.25
2022-08-05T02:07:59.866Z,12.57
2022-08-05T02:10:28.672Z,11.85
2022-08-05T02:12:58.934Z,13.33
2022-08-05T02:15:35.730Z,12.98
2022-08-05T02:18:32.941Z,12.80
2022-08-05T02:21:22.184Z,12.65
2022-08-05T02:23:52.496Z,12.98
2022-08-05T02:26:33.557Z,13.63
2022-08-05T02:29:00.548Z,13.32
2022-08-05T02:31:28.583Z,13.90
2022-08-05T02:34:05.275Z,13.10
2022-08-05T02:36:32.986Z,14.88
2022-08-05T02:39:00.717Z,12.00
2022-08-05T02:41:43.286Z,16.13
2022-08-05T02:44:15.667Z,12.43
2022-08-05T02:46:59.701Z,13.13
2022-08-05T02:49:36.195Z,13.43
2022-08-05T02:52:11.614Z,13.18
2022-08-05T02:54:42.294Z,13.05
2022-08-05T02:58:09.337Z,13.63
2022-08-05T03:00:06.706Z,13.02
2022-08-05T03:02:43.657Z,13.80
2022-08-05T03:05:12.155Z,13.13
2022-08-05T03:08:06.943Z,13.52
2022-08-05T03:10:27.724Z,14.13
2022-08-05T03:12:54.991Z,13.48
2022-08-05T03:15:25.287Z,13.60
2022-08-05T03:17:55.467Z,13.48
2022-08-05T03:20:23.644Z,13.20
2022-08-05T03:22:52.701Z,13.23
2022-08-05T03:25:33.395Z,13.27
2022-08-05T03:28:08.465Z,11.50
2022-08-05T03:30:35.969Z,12.75
2022-08-05T03:33:05.596Z,13.63
2022-08-05T03:35:33.790Z,13.15
2022-08-05T03:38:01.632Z,13.10
2022-08-05T03:40:32.353Z,12.82
2022-08-05T03:43:01.499Z,13.20
2022-08-05T03:45:55.285Z,13.13
2022-08-05T03:48:25.774Z,13.88
2022-08-05T03:52:34.875Z,13.57
2022-08-05T03:55:53.363Z,13.90
2022-08-05T03:56:46.407Z,13.65
2022-08-05T03:59:46.716Z,14.48
2022-08-05T04:02:17.478Z,12.68
2022-08-05T04:05:01.847Z,12.52
2022-08-05T04:07:28.998Z,13.02
2022-08-05T04:10:03.011Z,13.25
2022-08-05T04:12:30.660Z,13.27
2022-08-05T04:14:58.599Z,12.90
2022-08-05T04:17:25.938Z,13.13
2022-08-05T04:20:20.396Z,13.07
2022-08-05T04:22:50.960Z,13.65
2022-08-05T04:25:18.857Z,14.02
2022-08-05T04:27:57.416Z,12.65
2022-08-05T04:30:26.531Z,12.73
2022-08-05T04:32:53.718Z,13.30
2022-08-05T04:35:20.709Z,14.88
2022-08-05T04:38:02.580Z,12.25
2022-08-05T04:40:36.880Z,13.07
2022-08-05T04:43:04.150Z,12.90
2022-08-05T04:45:48.351Z,12.82
2022-08-05T04:48:27.002Z,12.98
2022-08-05T04:51:01.939Z,12.77
2022-08-05T04:53:33.653Z,13.15
2022-08-05T04:56:33.627Z,12.65
2022-08-05T04:58:50.491Z,11.98
2022-08-05T05:02:05.725Z,13.20
2022-08-05T05:04:05.252Z,12.80
2022-08-05T05:06:39.694Z,12.65
2022-08-05T05:09:13.988Z,12.45
2022-08-05T05:11:54.555Z,12.90
2022-08-05T05:17:00.451Z,12.75
2022-08-05T05:19:36.900Z,12.60
2022-08-05T05:22:23.549Z,12.05
2022-08-05T05:24:58.549Z,10.98
2022-08-05T05:27:41.506Z,11.98
2022-08-05T05:30:30.627Z,11.75
2022-08-05T05:33:00.484Z,12.27
2022-08-05T05:35:34.251Z,10.57
2022-08-05T05:38:09.057Z,11.77
2022-08-05T05:40:43.849Z,10.75
2022-08-05T05:43:16.573Z,12.27
2022-08-05T05:45:55.732Z,11.20
2022-08-05T05:48:27.768Z,11.40
2022-08-05T05:50:55.166Z,10.52
2022-08-05T05:53:22.999Z,10.38
2022-08-05T05:55:52.494Z,11.18
2022-08-05T05:58:31.413Z,10.50
2022-08-05T06:01:12.256Z,10.68
2022-08-05T06:04:01.650Z,10.88
2022-08-05T06:06:30.871Z,10.00
2022-08-05T06:08:59.102Z,10.43
2022-08-05T06:11:26.762Z,9.93
2022-08-05T06:13:56.318Z,11.10
2022-08-05T06:16:29.281Z,10.70
2022-08-05T06:19:01.288Z,10.18
2022-08-05T06:24:16.264Z,10.95
2022-08-05T06:26:51.088Z,10.55
2022-08-05T06:32:01.601Z,10.43
2022-08-05T06:34:29.699Z,9.73
2022-08-05T06:36:58.280Z,9.45
2022-08-05T06:39:27.914Z,9.63
2022-08-05T06:41:59.406Z,10.10
2022-08-05T06:44:27.152Z,10.40
2022-08-05T06:46:54.555Z,9.70
2022-08-05T06:50:00.828Z,9.85
2022-08-05T06:52:38.181Z,9.85
2022-08-05T06:54:55.652Z,9.35
2022-08-05T06:58:03.305Z,9.35
2022-08-05T07:00:10.649Z,8.35
2022-08-05T07:02:43.969Z,8.57
2022-08-05T07:05:18.773Z,8.38
2022-08-05T07:07:49.087Z,9.43
2022-08-05T07:10:16.459Z,8.50
2022-08-05T07:13:02.886Z,8.87
2022-08-05T07:16:01.045Z,8.40
2022-08-05T07:18:32.473Z,9.55
2022-08-05T07:21:04.762Z,8.90
2022-08-05T07:23:32.927Z,9.57
2022-08-05T07:25:59.883Z,10.05
2022-08-05T07:28:27.283Z,9.60
2022-08-05T07:30:55.213Z,9.48
2022-08-05T07:33:36.440Z,9.73
2022-08-05T07:36:20.916Z,8.38
2022-08-05T07:38:49.369Z,8.80
2022-08-05T07:42:08.001Z,9.63
2022-08-05T07:44:18.734Z,9.27
2022-08-05T07:46:49.381Z,9.13
2022-08-05T07:49:18.291Z,8.48
2022-08-05T07:51:53.717Z,7.75
2022-08-05T07:54:31.130Z,8.38
2022-08-05T07:57:22.882Z,9.00
2022-08-05T07:59:49.127Z,7.95
2022-08-05T08:02:17.947Z,8.18
2022-08-05T08:04:48.974Z,8.57
2022-08-05T08:07:22.414Z,7.80
2022-08-05T08:09:52.243Z,7.88
2022-08-05T08:12:37.283Z,8.18
2022-08-05T08:15:09.474Z,8.05
2022-08-05T08:17:46.110Z,6.40
2022-08-05T08:21:01.078Z,6.38
2022-08-05T08:24:02.215Z,7.80
2022-08-05T08:26:02.606Z,7.07
2022-08-05T08:28:36.587Z,7.22
2022-08-05T08:31:06.298Z,6.97
2022-08-05T08:33:37.593Z,6.63
2022-08-05T08:38:57.021Z,7.72
2022-08-05T08:41:26.088Z,8.23
2022-08-05T08:45:19.920Z,6.72
2022-08-05T08:47:00.309Z,7.68
2022-08-05T08:50:06.225Z,7.22
2022-08-05T08:55:13.150Z,6.50
2022-08-05T09:00:25.426Z,6.18
2022-08-05T09:02:54.570Z,7.10
2022-08-05T09:05:38.520Z,7.22
2022-08-05T09:20:57.307Z,7.03
2022-08-05T09:23:27.236Z,7.37
2022-08-05T09:26:20.896Z,8.18
2022-08-05T09:41:18.056Z,6.82
2022-08-05T09:54:58.770Z,6.57
2022-08-05T09:57:29.369Z,6.35
2022-08-05T10:00:19.244Z,5.70
2022-08-05T10:08:37.439Z,7.35
2022-08-05T10:11:15.546Z,8.38
2022-08-05T10:16:41.622Z,4.38
2022-08-05T10:19:11.677Z,5.28
2022-08-05T10:21:40.017Z,4.32
2022-08-05T10:24:13.746Z,4.82
2022-08-05T10:26:51.441Z,5.25
2022-08-05T10:29:23.535Z,5.43
2022-08-05T10:32:52.206Z,5.70
2022-08-05T10:35:01.028Z,3.97
2022-08-05T10:37:40.252Z,7.05
2022-08-05T10:40:58.026Z,4.75
2022-08-05T10:43:36.579Z,5.28
2022-08-05T10:46:06.489Z,4.85
2022-08-05T10:48:52.518Z,5.05
2022-08-05T10:51:28.475Z,3.58
2022-08-05T10:54:01.793Z,4.07
2022-08-05T10:56:47.141Z,3.90
2022-08-05T11:00:02.547Z,5.00
2022-08-05T11:02:14.576Z,3.83
2022-08-05T11:05:00.252Z,3.47
2022-08-05T11:07:32.931Z,3.30
2022-08-05T11:10:27.739Z,3.30
2022-08-05T11:12:57.129Z,5.78
2022-08-05T11:16:00.277Z,3.72
2022-08-05T11:18:32.551Z,4.63
2022-08-05T11:20:59.826Z,4.20
2022-08-05T11:23:33.463Z,6.38
2022-08-05T11:29:11.358Z,6.03
2022-08-05T11:31:56.648Z,3.67
2022-08-05T11:34:37.916Z,3.83
2022-08-05T11:37:09.255Z,3.75
2022-08-05T11:40:00.828Z,4.22
2022-08-05T11:45:03.634Z,4.85
2022-08-05T11:47:49.383Z,3.97
2022-08-05T11:50:17.917Z,3.80
2022-08-05T11:52:48.835Z,5.73
2022-08-05T11:55:17.272Z,4.68
2022-08-05T11:58:09.150Z,4.60
2022-08-05T12:00:38.603Z,4.38
2022-08-05T12:03:28.710Z,5.60
2022-08-05T12:06:03.253Z,4.85
2022-08-05T12:08:33.326Z,4.53
2022-08-05T12:11:05.419Z,5.95
2022-08-05T12:13:48.719Z,5.13
2022-08-05T12:16:19.033Z,4.55
2022-08-05T12:18:52.803Z,5.40
2022-08-05T12:21:26.897Z,5.13
2022-08-05T12:24:06.862Z,5.10
2022-08-05T12:26:47.823Z,4.90
2022-08-05T12:29:23.010Z,4.30
2022-08-05T12:31:57.659Z,6.05
2022-08-05T12:34:31.701Z,4.93
2022-08-05T12:37:10.614Z,5.53
2022-08-05T12:39:39.003Z,7.07
2022-08-05T12:42:14.934Z,4.75
2022-08-05T12:44:43.088Z,4.68
2022-08-05T12:47:12.434Z,4.78
2022-08-05T12:50:03.316Z,4.85
2022-08-05T12:52:39.208Z,5.40
2022-08-05T12:55:26.483Z,4.57
2022-08-05T12:58:48.634Z,4.72
2022-08-05T13:02:01.665Z,7.32
2022-08-05T13:03:34.492Z,5.35
2022-08-05T13:06:11.660Z,4.63
2022-08-05T13:08:39.024Z,5.05
2022-08-05T13:11:07.965Z,5.53
2022-08-05T13:14:05.024Z,15.02
2022-08-05T13:16:27.707Z,4.80
2022-08-05T13:18:58.364Z,4.60
2022-08-05T13:21:28.537Z,4.43
2022-08-05T13:24:13.595Z,6.70
2022-08-05T13:26:54.786Z,4.22
2022-08-05T13:29:37.293Z,4.35
2022-08-05T13:32:05.657Z,6.15
2022-08-05T13:34:33.242Z,4.45
2022-08-05T13:37:00.649Z,4.47
2022-08-05T13:40:15.866Z,4.40
2022-08-05T13:42:15.370Z,4.22
2022-08-05T13:47:35.741Z,4.15
2022-08-05T13:50:04.686Z,4.05
2022-08-05T13:52:35.420Z,5.07
2022-08-05T13:55:07.691Z,7.03
2022-08-05T13:57:51.287Z,5.38
2022-08-05T14:00:27.106Z,4.68
2022-08-05T14:03:01.113Z,6.72
2022-08-05T14:05:48.020Z,5.65
2022-08-05T14:08:21.263Z,3.97
2022-08-05T14:10:54.373Z,4.10
2022-08-05T14:13:32.253Z,4.07
2022-08-05T14:16:07.160Z,5.05
2022-08-05T14:18:38.021Z,4.53
2022-08-05T14:22:08.502Z,9.48
2022-08-05T14:23:52.139Z,5.03
2022-08-05T14:26:38.655Z,3.97
2022-08-05T14:29:16.289Z,5.20
2022-08-05T14:32:03.493Z,6.22
2022-08-05T14:34:35.023Z,7.32
2022-08-05T14:37:03.028Z,5.03
2022-08-05T14:39:30.037Z,4.00
2022-08-05T14:42:21.099Z,4.10
2022-08-05T14:44:49.133Z,4.53
2022-08-05T14:47:16.109Z,4.07
2022-08-05T14:49:59.610Z,5.50
2022-08-05T14:52:51.800Z,4.75
2022-08-05T14:55:15.839Z,7.28
2022-08-05T14:57:54.352Z,4.75
2022-08-05T15:00:27.977Z,4.20
2022-08-05T15:02:56.745Z,4.50
2022-08-05T15:05:29.678Z,5.18
2022-08-05T15:08:08.574Z,4.53
2022-08-05T15:10:46.213Z,4.30
2022-08-05T15:13:13.924Z,5.75
2022-08-05T15:15:54.472Z,5.27
2022-08-05T15:18:23.559Z,4.57
2022-08-05T15:20:50.921Z,4.57
2022-08-05T15:23:18.161Z,5.38
2022-08-05T15:25:52.048Z,5.97
2022-08-05T15:28:24.291Z,4.75
2022-08-05T15:30:54.872Z,4.70
2022-08-05T15:34:04.084Z,4.38
2022-08-05T15:36:17.763Z,4.80
2022-08-05T15:40:41.001Z,5.22
2022-08-05T15:41:56.268Z,4.70
2022-08-05T15:44:27.611Z,4.72
2022-08-05T15:46:55.820Z,5.10
2022-08-05T15:49:41.837Z,5.95
2022-08-05T15:52:16.242Z,4.40
2022-08-05T15:54:56.686Z,5.05
2022-08-05T15:57:23.938Z,4.63
2022-08-05T15:59:56.682Z,4.77
2022-08-05T16:02:28.855Z,4.88
2022-08-05T16:04:56.481Z,5.15
2022-08-05T16:07:23.430Z,5.30
2022-08-05T16:09:50.790Z,5.32
2022-08-05T16:12:21.058Z,5.18
2022-08-05T16:14:48.384Z,5.32
2022-08-05T16:17:16.287Z,5.00
2022-08-05T16:20:04.779Z,5.22
2022-08-05T16:22:34.083Z,7.28
2022-08-05T16:25:08.187Z,5.40
2022-08-05T16:28:00.987Z,4.82
2022-08-05T16:30:26.117Z,5.13
2022-08-05T16:32:54.158Z,5.32
2022-08-05T16:35:28.578Z,5.07
2022-08-05T16:38:16.429Z,6.07
2022-08-05T16:40:52.033Z,5.63
2022-08-05T16:43:27.732Z,5.82
2022-08-05T16:46:04.965Z,6.75
2022-08-05T16:48:38.590Z,5.93
2022-08-05T16:51:09.157Z,5.20
2022-08-05T16:54:04.334Z,5.25
2022-08-05T16:56:29.239Z,5.47
2022-08-05T16:58:57.164Z,5.88
2022-08-05T17:01:24.636Z,5.65
2022-08-05T17:03:52.202Z,6.23
2022-08-05T17:06:20.287Z,5.40
2022-08-05T17:08:53.441Z,5.70
2022-08-05T17:11:23.702Z,7.15
2022-08-05T17:14:00.306Z,5.78
2022-08-05T17:16:37.275Z,8.93
2022-08-05T17:19:09.768Z,10.52
2022-08-05T17:21:39.762Z,7.63
2022-08-05T17:24:28.420Z,18.05
2022-08-05T17:26:56.467Z,14.50
2022-08-05T17:29:33.828Z,8.02
2022-08-05T17:32:11.282Z,9.68
2022-08-05T17:34:39.087Z,9.82
2022-08-05T17:37:35.988Z,7.13
2022-08-05T17:39:55.757Z,7.63
2022-08-05T17:42:28.353Z,7.13
2022-08-05T17:44:57.294Z,7.35
2022-08-05T17:47:24.481Z,15.40
2022-08-05T17:50:03.659Z,7.38
2022-08-05T17:52:53.129Z,10.00
2022-08-05T17:55:22.749Z,9.40
2022-08-05T17:57:54.786Z,9.27
2022-08-05T18:00:21.785Z,8.73
2022-08-05T18:02:56.773Z,9.38
2022-08-05T18:05:24.050Z,8.35
2022-08-05T18:07:56.882Z,8.55
2022-08-05T18:12:51.481Z,8.45
2022-08-05T18:15:18.734Z,8.50
2022-08-05T18:18:01.459Z,8.97
2022-08-05T18:20:31.866Z,8.88
2022-08-05T18:23:00.358Z,9.45
2022-08-05T18:25:35.965Z,7.85
2022-08-05T18:28:05.185Z,8.10
2022-08-05T18:30:33.306Z,8.43
2022-08-05T18:33:01.064Z,8.75
2022-08-05T18:35:49.576Z,27.58
2022-08-05T18:38:19.294Z,33.60
2022-08-05T19:20:55.944Z,8.10
2022-08-05T19:24:05.377Z,8.45
2022-08-05T19:26:11.163Z,9.30
2022-08-05T19:28:43.210Z,9.82
2022-08-05T19:31:17.977Z,8.60
2022-08-05T19:33:48.522Z,9.05
2022-08-05T19:36:23.589Z,9.52
2022-08-05T19:38:50.577Z,9.45
2022-08-05T19:41:17.555Z,8.90
2022-08-05T19:44:05.402Z,8.57
2022-08-05T19:46:35.434Z,11.77
2022-08-05T19:49:06.920Z,10.27
2022-08-05T19:52:06.011Z,9.52
2022-08-05T19:54:29.453Z,9.33
2022-08-05T19:57:02.407Z,10.10
2022-08-05T19:59:54.586Z,9.38
2022-08-05T20:02:21.147Z,10.20
2022-08-05T20:04:48.634Z,10.20
2022-08-05T20:07:15.680Z,9.65
2022-08-05T20:10:04.876Z,10.45
2022-08-05T20:12:38.873Z,9.50
2022-08-05T20:15:13.932Z,10.10
2022-08-05T20:17:40.946Z,9.70
2022-08-05T20:22:38.245Z,9.70
2022-08-05T20:25:09.423Z,10.00
2022-08-05T20:27:42.122Z,9.77
2022-08-05T20:30:10.531Z,9.38
2022-08-05T20:32:37.574Z,9.93
2022-08-05T20:35:12.176Z,9.75
2022-08-05T20:38:05.499Z,9.73
2022-08-05T20:40:27.377Z,10.82
2022-08-05T20:42:59.946Z,9.85
2022-08-05T20:49:14.676Z,9.40
2022-08-05T20:51:45.549Z,10.23
2022-08-05T20:54:20.539Z,9.98
2022-08-05T20:56:48.947Z,10.52
2022-08-05T20:59:26.274Z,9.75
2022-08-05T21:01:57.141Z,9.35
2022-08-05T21:04:27.051Z,9.82
2022-08-05T21:06:54.925Z,11.38
2022-08-05T21:09:23.027Z,11.45
2022-08-05T21:12:10.286Z,10.55
2022-08-05T21:14:38.694Z,10.50
2022-08-05T21:17:06.345Z,10.63
2022-08-05T21:19:47.139Z,10.20
2022-08-05T21:22:23.490Z,10.95
2022-08-05T21:24:54.863Z,10.18
2022-08-05T21:27:25.189Z,10.60
2022-08-05T21:29:55.865Z,9.90
2022-08-05T21:32:27.353Z,9.95
2022-08-05T21:35:17.777Z,10.50
2022-08-05T21:37:52.942Z,9.80
2022-08-05T21:40:22.351Z,10.10
2022-08-05T21:42:51.810Z,9.00
2022-08-05T21:45:24.767Z,9.65
2022-08-05T21:48:06.615Z,9.55
2022-08-05T21:50:37.262Z,9.98
2022-08-05T21:53:16.084Z,9.75
2022-08-05T21:56:04.690Z,9.68
2022-08-05T21:58:32.236Z,9.32
2022-08-05T22:00:59.733Z,9.25
2022-08-05T22:03:48.835Z,10.02
2022-08-05T22:06:16.012Z,9.30
2022-08-05T22:08:51.828Z,8.68
2022-08-05T22:11:35.073Z,9.45
2022-08-05T22:14:34.117Z,8.77
2022-08-05T22:16:55.895Z,9.20
2022-08-05T22:20:02.773Z,10.32
2022-08-05T22:22:12.195Z,10.13
2022-08-05T22:25:00.270Z,9.75
2022-08-05T22:28:08.390Z,10.07
2022-08-05T22:30:35.672Z,9.32
2022-08-05T22:33:15.538Z,12.30
2022-08-05T22:35:48.586Z,10.45
2022-08-05T22:38:19.682Z,9.85
2022-08-05T22:40:49.346Z,10.63
2022-08-05T22:43:36.674Z,8.93
2022-08-05T22:46:12.177Z,9.38
2022-08-05T22:48:41.437Z,9.02
2022-08-05T22:51:15.742Z,14.30
2022-08-05T22:53:49.919Z,9.18
2022-08-05T22:56:17.655Z,9.90
2022-08-05T22:58:58.735Z,9.57
2022-08-05T23:02:03.985Z,9.25
2022-08-05T23:04:14.274Z,9.10
2022-08-05T23:06:42.574Z,9.23
2022-08-05T23:09:26.937Z,9.60
2022-08-05T23:11:55.208Z,11.88
2022-08-05T23:14:31.857Z,8.95
2022-08-05T23:17:23.967Z,9.57
2022-08-05T23:19:56.558Z,9.38
2022-08-05T23:22:27.390Z,9.38
2022-08-05T23:24:55.211Z,10.35
2022-08-05T23:27:22.702Z,9.68
2022-08-05T23:32:22.809Z,9.88
2022-08-05T23:34:50.841Z,9.50
2022-08-05T23:37:18.261Z,9.07
2022-08-05T23:39:54.227Z,9.48
2022-08-05T23:42:23.354Z,9.00
2022-08-05T23:44:56.153Z,9.60
2022-08-05T23:47:23.327Z,9.85
2022-08-05T23:49:55.646Z,9.10
2022-08-05T23:52:27.768Z,13.55
2022-08-05T23:54:59.825Z,10.15
2022-08-05T23:57:28.089Z,10.30
